Terminal Aerodrome Forecast
Issued by NWS

Home | Current Version | Previous Version | Text Only | Print | Product List | Glossary On
Versions: 1 2 3 4 5 6 7 8 9 10 11 12 13 14 15 16 17
000
FTUS46 KPQR 261725
TAFONP
TAF
KONP 261725Z 2618/2718 21007KT 5SM BR BKN004 OVC010
     FM262200 23007KT 6SM BR SCT007 OVC010
     FM270300 25005KT 4SM BR OVC007
     FM270900 VRB03KT 5SM BR SCT003 OVC007
     FM271500 32004KT 6SM BR BKN007 OVC015=

USA.gov is the U.S. government's official web portal to all federal, state and local government web resources and services.